createdAt,value
2022-11-10T00:02:29.942Z,100.00
2022-11-10T00:07:50.196Z,100.00
2022-11-10T00:13:10.153Z,100.00
2022-11-10T00:18:30.123Z,100.00
2022-11-10T00:23:50.061Z,100.00
2022-11-10T00:29:10.260Z,100.00
2022-11-10T00:34:30.238Z,100.00
2022-11-10T00:39:50.205Z,100.00
2022-11-10T00:45:10.496Z,100.00
2022-11-10T00:50:30.300Z,100.00
2022-11-10T00:55:50.635Z,100.00
2022-11-10T01:01:11.621Z,100.00
2022-11-10T01:06:31.654Z,100.00
2022-11-10T01:11:51.843Z,100.00
2022-11-10T01:17:11.999Z,100.00
2022-11-10T01:22:31.809Z,100.00
2022-11-10T01:27:52.256Z,100.00
2022-11-10T01:33:12.448Z,100.00
2022-11-10T01:38:34.846Z,100.00
2022-11-10T01:44:12.453Z,100.00
2022-11-10T01:49:32.561Z,100.00
2022-11-10T01:54:52.805Z,100.00
2022-11-10T02:00:13.390Z,100.00
2022-11-10T02:05:33.466Z,100.00
2022-11-10T02:10:53.862Z,100.00
2022-11-10T02:16:13.965Z,100.00
2022-11-10T02:21:34.240Z,100.00
2022-11-10T02:26:55.777Z,100.00
2022-11-10T02:32:16.149Z,100.00
2022-11-10T02:37:36.395Z,100.00
2022-11-10T02:42:56.702Z,100.00
2022-11-10T02:48:16.946Z,100.00
2022-11-10T02:53:37.147Z,100.00
2022-11-10T02:58:57.361Z,100.00
2022-11-10T03:04:17.645Z,100.00
2022-11-10T03:09:37.457Z,100.00
2022-11-10T03:14:57.577Z,100.00
2022-11-10T03:20:18.026Z,100.00
2022-11-10T03:25:38.210Z,100.00
2022-11-10T03:30:58.067Z,100.00
2022-11-10T03:36:18.090Z,100.00
2022-11-10T03:41:38.408Z,100.00
2022-11-10T03:46:58.808Z,100.00
2022-11-10T03:52:18.752Z,100.00
2022-11-10T03:57:39.318Z,100.00
2022-11-10T04:02:59.226Z,100.00
2022-11-10T04:08:19.194Z,100.00
2022-11-10T04:13:39.321Z,100.00
2022-11-10T04:18:59.557Z,100.00
2022-11-10T04:24:20.488Z,100.00
2022-11-10T04:29:40.654Z,100.00
2022-11-10T04:35:00.899Z,100.00
2022-11-10T04:40:20.995Z,100.00
2022-11-10T04:45:41.148Z,100.00
2022-11-10T04:51:05.943Z,100.00
2022-11-10T04:56:26.801Z,100.00
2022-11-10T05:01:46.798Z,100.00
2022-11-10T05:07:06.858Z,100.00
2022-11-10T05:12:27.249Z,100.00
2022-11-10T05:17:51.966Z,100.00
2022-11-10T05:23:12.298Z,100.00
2022-11-10T05:28:32.515Z,100.00
2022-11-10T05:33:52.383Z,100.00
2022-11-10T05:39:12.380Z,100.00
2022-11-10T05:44:32.411Z,100.00
2022-11-10T05:49:52.641Z,100.00
2022-11-10T05:55:13.675Z,100.00
2022-11-10T06:00:34.399Z,100.00
2022-11-10T06:05:54.348Z,100.00
2022-11-10T06:11:14.347Z,100.00
2022-11-10T06:16:34.268Z,100.00
2022-11-10T06:22:01.299Z,100.00
2022-11-10T06:27:23.891Z,100.00
2022-11-10T06:32:44.138Z,100.00
2022-11-10T06:38:10.882Z,100.00
2022-11-10T06:43:30.896Z,100.00
2022-11-10T06:48:50.764Z,100.00
2022-11-10T06:54:10.673Z,100.00
2022-11-10T06:59:30.866Z,100.00
2022-11-10T07:04:50.729Z,100.00
2022-11-10T07:10:10.832Z,100.00
2022-11-10T07:15:31.520Z,100.00
2022-11-10T07:20:51.983Z,100.00
2022-11-10T07:26:12.647Z,100.00
2022-11-10T07:31:32.754Z,100.00
2022-11-10T07:36:52.837Z,100.00
2022-11-10T07:42:12.929Z,100.00
2022-11-10T07:47:33.297Z,100.00
2022-11-10T07:52:53.360Z,100.00
2022-11-10T07:58:16.369Z,100.00
2022-11-10T08:03:36.508Z,100.00
2022-11-10T08:08:56.582Z,100.00
2022-11-10T08:14:16.888Z,100.00
2022-11-10T08:19:36.926Z,100.00
2022-11-10T08:24:57.190Z,100.00
2022-11-10T08:30:17.098Z,100.00
2022-11-10T08:35:41.214Z,100.00
2022-11-10T08:41:01.058Z,100.00
2022-11-10T08:46:21.335Z,100.00
2022-11-10T08:51:41.490Z,100.00
2022-11-10T08:57:01.224Z,100.00
2022-11-10T09:02:21.592Z,100.00
2022-11-10T09:07:46.792Z,100.00
2022-11-10T09:13:07.320Z,100.00
2022-11-10T09:18:27.419Z,100.00
2022-11-10T09:23:48.457Z,100.00
2022-11-10T09:29:10.069Z,100.00
2022-11-10T09:34:30.130Z,100.00
2022-11-10T09:39:50.221Z,100.00
2022-11-10T09:45:20.121Z,100.00
2022-11-10T09:50:44.973Z,97.50
2022-11-10T09:56:06.992Z,98.88
2022-11-10T10:01:51.349Z,96.25
2022-11-10T10:07:28.890Z,92.84
2022-11-10T10:13:17.271Z,93.45
2022-11-10T10:18:56.019Z,93.24
2022-11-10T10:24:22.282Z,91.58
2022-11-10T10:29:46.697Z,94.72
2022-11-10T10:35:09.339Z,93.47
2022-11-10T10:40:29.580Z,93.91
2022-11-10T10:46:23.089Z,89.69
2022-11-10T10:51:43.218Z,89.31
2022-11-10T10:57:23.736Z,88.12
2022-11-10T11:02:43.740Z,87.77
2022-11-10T11:08:04.246Z,88.65
2022-11-10T11:13:26.798Z,92.48
2022-11-10T11:18:47.372Z,89.59
2022-11-10T11:24:27.820Z,87.04
2022-11-10T11:29:54.063Z,86.51
2022-11-10T11:35:19.639Z,84.04
2022-11-10T11:41:01.712Z,83.66
2022-11-10T11:46:48.010Z,84.14
2022-11-10T11:52:30.523Z,81.84
2022-11-10T11:58:12.334Z,83.29
2022-11-10T12:03:45.704Z,84.50
2022-11-10T12:09:28.470Z,81.58
2022-11-10T12:15:11.900Z,82.30
2022-11-10T12:20:58.675Z,82.19
2022-11-10T12:26:28.071Z,81.10
2022-11-10T12:31:52.085Z,83.82
2022-11-10T12:37:43.749Z,83.75
2022-11-10T12:43:07.533Z,84.11
2022-11-10T12:48:38.869Z,81.87
2022-11-10T12:53:58.810Z,81.59
2022-11-10T12:59:22.029Z,83.31
2022-11-10T13:04:42.096Z,84.17
2022-11-10T13:10:22.445Z,81.91
2022-11-10T13:15:42.590Z,84.27
2022-11-10T13:21:02.628Z,81.19
2022-11-10T13:26:44.802Z,85.73
2022-11-10T13:32:07.645Z,88.23
2022-11-10T13:37:33.911Z,87.23
2022-11-10T13:43:14.153Z,87.58
2022-11-10T13:48:48.890Z,87.61
2022-11-10T13:54:57.079Z,86.99
2022-11-10T14:00:17.040Z,85.96
2022-11-10T14:05:37.003Z,87.00
2022-11-10T14:11:03.462Z,89.15
2022-11-10T14:16:26.198Z,92.50
2022-11-10T14:21:58.012Z,92.35
2022-11-10T14:27:28.514Z,91.95
2022-11-10T14:33:13.647Z,95.51
2022-11-10T14:38:33.939Z,94.74
2022-11-10T14:44:07.677Z,95.49
2022-11-10T14:49:27.993Z,99.99
2022-11-10T14:54:48.230Z,100.00
2022-11-10T15:00:14.883Z,100.00
2022-11-10T15:05:35.697Z,100.00
2022-11-10T15:10:55.863Z,100.00
2022-11-10T15:16:22.342Z,100.00
2022-11-10T15:21:42.374Z,100.00
2022-11-10T15:27:02.744Z,100.00
2022-11-10T15:32:27.240Z,100.00
2022-11-10T15:38:05.545Z,100.00
2022-11-10T15:43:27.413Z,100.00
2022-11-10T15:48:50.395Z,100.00
2022-11-10T15:54:11.623Z,100.00
2022-11-10T15:59:31.982Z,100.00
2022-11-10T16:04:58.607Z,100.00
2022-11-10T16:10:20.736Z,100.00
2022-11-10T16:15:42.028Z,100.00
2022-11-10T16:21:02.042Z,100.00
2022-11-10T16:26:25.439Z,100.00
2022-11-10T16:31:45.507Z,100.00
2022-11-10T16:37:05.575Z,100.00
2022-11-10T16:42:25.866Z,100.00
2022-11-10T16:47:48.219Z,100.00
2022-11-10T16:53:14.338Z,100.00
2022-11-10T16:58:34.309Z,100.00
2022-11-10T17:03:57.462Z,100.00
2022-11-10T17:09:20.522Z,100.00
2022-11-10T17:14:40.349Z,100.00
2022-11-10T17:20:00.299Z,100.00
2022-11-10T17:25:33.516Z,100.00
2022-11-10T17:30:53.621Z,100.00
2022-11-10T17:36:18.383Z,100.00
2022-11-10T17:41:38.305Z,100.00
2022-11-10T17:46:58.669Z,100.00
2022-11-10T17:52:18.680Z,100.00
2022-11-10T17:57:39.831Z,100.00
2022-11-10T18:02:59.740Z,100.00
2022-11-10T18:08:20.279Z,100.00
2022-11-10T18:13:41.588Z,100.00
2022-11-10T18:19:01.662Z,100.00
2022-11-10T18:24:21.859Z,100.00
2022-11-10T18:29:42.157Z,100.00
2022-11-10T18:35:02.363Z,100.00
2022-11-10T18:40:22.419Z,100.00
2022-11-10T18:45:42.497Z,100.00
2022-11-10T18:51:05.539Z,100.00
2022-11-10T18:56:26.308Z,100.00
2022-11-10T19:01:46.570Z,100.00
2022-11-10T19:07:07.036Z,100.00
2022-11-10T19:12:27.191Z,100.00
2022-11-10T19:17:47.388Z,100.00
2022-11-10T19:23:08.038Z,100.00
2022-11-10T19:28:29.014Z,100.00
2022-11-10T19:33:50.970Z,100.00
2022-11-10T19:39:13.318Z,100.00
2022-11-10T19:44:33.430Z,100.00
2022-11-10T19:49:54.801Z,100.00
2022-11-10T19:55:14.920Z,100.00
2022-11-10T20:00:35.431Z,100.00
2022-11-10T20:06:07.540Z,100.00
2022-11-10T20:11:27.573Z,100.00
2022-11-10T20:16:47.601Z,100.00
2022-11-10T20:22:07.514Z,100.00
2022-11-10T20:27:27.551Z,100.00
2022-11-10T20:32:47.616Z,100.00
2022-11-10T20:38:07.898Z,100.00
2022-11-10T20:43:33.312Z,100.00
2022-11-10T20:48:53.130Z,100.00
2022-11-10T20:54:13.136Z,100.00
2022-11-10T20:59:33.080Z,100.00
2022-11-10T21:04:53.090Z,100.00
2022-11-10T21:10:13.065Z,100.00
2022-11-10T21:15:36.512Z,100.00
2022-11-10T21:20:57.315Z,100.00
2022-11-10T21:26:17.435Z,100.00
2022-11-10T21:31:37.726Z,100.00
2022-11-10T21:36:57.905Z,100.00
2022-11-10T21:42:17.754Z,100.00
2022-11-10T21:47:37.715Z,100.00
2022-11-10T21:52:57.884Z,100.00
2022-11-10T21:58:18.125Z,100.00
2022-11-10T22:03:38.644Z,100.00
2022-11-10T22:08:58.555Z,100.00
2022-11-10T22:14:18.729Z,100.00
2022-11-10T22:19:38.649Z,100.00
2022-11-10T22:24:58.486Z,100.00
2022-11-10T22:30:18.639Z,100.00
2022-11-10T22:35:38.677Z,100.00
2022-11-10T22:40:58.880Z,100.00
2022-11-10T22:46:18.889Z,100.00
2022-11-10T22:51:38.768Z,100.00
2022-11-10T22:56:58.685Z,100.00
2022-11-10T23:02:18.754Z,100.00
2022-11-10T23:07:38.639Z,100.00
2022-11-10T23:12:58.698Z,100.00
2022-11-10T23:18:18.975Z,100.00
2022-11-10T23:23:40.545Z,100.00
2022-11-10T23:29:00.678Z,100.00
2022-11-10T23:34:20.834Z,100.00
2022-11-10T23:39:40.730Z,100.00
2022-11-10T23:45:00.879Z,100.00
2022-11-10T23:50:20.998Z,100.00
2022-11-10T23:55:41.269Z,100.00
